Latest Weather Observations for Bickley

IDW60801

Issued at 6:03 pm WST Sunday 26 February 2017 (issued every 30 minutes, with the page automatically refreshed every 10 minutes)

About weather observations | Map of weather stations | Latest weather observations for WA | Other Formats
Station Details ID: 009240 Name: BICKLEY Lat: -32.01 Lon: 116.14 Height: 384.0 m
Data from the previous 72 hours. | See also: Recent months at Bickley
Date/Time
WST
Temp
°C
App
Temp
°C
Dew
Point
°C
Rel
Hum
%
Delta-T
°C
Wind Press
QNH
hPa
Press
MSL
hPa
Rain since
9am
mm
Dir  Spd
km/h
Gust
km/h
Spd
kts
Gust
kts
26/06:00pm 24.2 23.4 15.1 56 5.5 WSW 13 24 7 13 - - 0.0
26/05:30pm 25.4 24.9 14.8 52 6.5 W 11 20 6 11 - - 0.0
26/05:00pm 26.7 25.7 15.7 51 6.8 W 15 24 8 13 - - 0.0
26/04:30pm 26.7 25.2 15.4 50 7.0 W 17 26 9 14 - - 0.0
26/04:00pm 27.0 25.5 15.4 49 7.2 W 17 26 9 14 - - 0.0
26/03:30pm 27.7 27.1 15.7 48 7.5 W 13 22 7 12 - - 0.0
26/03:00pm 27.4 27.2 15.7 48 7.3 WSW 11 22 6 12 - - 0.0
26/02:30pm 28.8 27.8 16.7 48 7.7 W 17 24 9 13 - - 0.0
26/02:00pm 28.1 27.0 16.4 49 7.4 W 17 24 9 13 - - 0.0
26/01:30pm 28.6 28.4 15.8 45 8.0 WNW 11 22 6 12 - - 0.0
26/01:00pm 29.3 27.8 13.1 37 9.7 WNW 13 24 7 13 - - 0.0
26/12:30pm 28.6 26.8 12.1 36 9.7 WNW 13 22 7 12 - - 0.0
26/12:00pm 28.2 27.1 14.4 42 8.4 NW 13 24 7 13 - - 0.0
26/11:30am 27.4 27.1 15.4 48 7.4 NW 11 20 6 11 - - 0.0
26/11:00am 26.2 26.2 14.3 48 7.2 NW 7 13 4 7 - - 0.0
26/10:30am 25.8 25.5 15.5 53 6.3 NW 11 17 6 9 - - 0.0
26/10:00am 24.8 24.8 15.1 54 5.9 WNW 9 13 5 7 - - 0.0
26/09:30am 23.8 24.1 14.5 56 5.6 WSW 6 11 3 6 - - 0.0
26/09:00am 22.9 23.1 14.2 58 5.2 WNW 6 9 3 5 - - 0.0
26/08:30am 21.1 21.0 13.8 63 4.3 WNW 7 13 4 7 - - 0.0
26/08:00am 20.2 18.2 11.4 57 4.9 NW 13 20 7 11 - - 0.0
26/07:30am 21.8 20.5 11.2 51 6.0 E 9 13 5 7 - - 0.0
26/07:00am 20.4 18.2 9.3 49 6.0 E 11 13 6 7 - - 0.0
26/06:30am 21.0 18.1 8.0 43 6.9 SE 13 20 7 11 - - 0.0
26/06:00am 21.0 17.7 8.0 43 6.9 SSE 15 20 8 11 - - 0.0
26/05:30am 21.5 17.3 8.4 43 7.0 SSE 20 26 11 14 - - 0.0
26/05:00am 20.8 17.4 9.1 47 6.3 S 17 20 9 11 - - 0.0
26/04:30am 22.0 18.8 8.5 42 7.3 S 15 20 8 11 - - 0.0
26/04:00am 21.6 18.3 9.5 46 6.6 S 17 22 9 12 - - 0.0
26/03:30am 21.6 18.7 9.8 47 6.5 SSW 15 20 8 11 - - 0.0
26/03:00am 21.4 20.2 10.3 49 6.1 SSW 7 13 4 7 - - 0.0
26/02:30am 22.2 20.8 9.0 43 7.2 SW 6 9 3 5 - - 0.0
26/02:00am 21.8 21.8 9.7 46 6.6 CALM 0 0 0 0 - - 0.0
26/01:30am 22.8 21.4 8.9 41 7.6 SW 6 9 3 5 - - 0.0
26/01:00am 22.3 20.9 9.5 44 7.0 SW 7 9 4 5 - - 0.0
26/12:30am 23.9 22.4 8.3 37 8.5 SSW 6 9 3 5 - - 0.0
26/12:00am 24.0 22.5 8.4 37 8.5 SE 6 7 3 4 - - 0.0
 
Date/Time
WST
Temp
°C
App
Temp
°C
Dew
Point
°C
Rel
Hum
%
Delta-T
°C
Wind Press
QNH
hPa
Press
MSL
hPa
Rain since
9am
mm
Dir  Spd
km/h
Gust
km/h
Spd
kts
Gust
kts
25/11:30pm 25.3 23.1 6.0 29 10.1 SE 7 11 4 6 - - 0.0
25/11:00pm 26.0 23.4 6.1 28 10.5 ESE 9 13 5 7 - - 0.0
25/10:30pm 26.3 24.0 7.4 30 10.2 SE 9 13 5 7 - - 0.0
25/10:00pm 26.1 23.1 7.7 31 10.0 SSE 13 17 7 9 - - 0.0
25/09:30pm 26.8 23.4 7.8 30 10.4 SSE 15 20 8 11 - - 0.0
25/09:00pm 27.1 23.3 7.5 29 10.7 SSE 17 22 9 12 - - 0.0
25/08:30pm 27.3 24.2 7.2 28 10.9 SSE 13 17 7 9 - - 0.0
25/08:00pm 27.5 24.5 7.9 29 10.7 S 13 20 7 11 - - 0.0
25/07:30pm 28.3 25.4 8.1 28 11.2 SSW 13 17 7 9 - - 0.0
25/07:00pm 29.3 26.6 8.9 28 11.5 SSW 13 17 7 9 - - 0.0
25/06:30pm 30.9 28.9 8.6 25 12.6 SW 9 15 5 8 - - 0.0
25/06:00pm 33.1 31.0 9.8 24 13.5 SW 11 20 6 11 - - 0.0
25/05:30pm 34.3 33.1 6.6 18 15.4 ENE 2 7 1 4 - - 0.0
25/05:00pm 35.1 32.6 3.6 14 16.8 SE 6 9 3 5 - - 0.0
25/04:30pm 35.6 33.1 5.0 15 16.7 ESE 7 13 4 7 - - 0.0
25/04:00pm 35.2 32.7 3.7 14 16.8 NNE 6 15 3 8 - - 0.0
25/03:30pm 35.5 32.8 2.9 13 17.2 NW 6 11 3 6 - - 0.0
25/03:00pm 35.4 32.9 3.9 14 16.9 ESE 6 17 3 9 - - 0.0
25/02:30pm 35.5 32.6 4.9 15 16.7 E 9 20 5 11 - - 0.0
25/02:00pm 35.3 32.2 3.8 14 16.8 ENE 9 22 5 12 - - 0.0
25/01:30pm 34.9 31.6 2.4 13 17.0 ENE 9 20 5 11 - - 0.0
25/01:00pm 34.2 31.0 2.9 14 16.4 NNE 9 22 5 12 - - 0.0
25/12:30pm 33.4 29.8 5.0 17 15.3 NNE 13 28 7 15 - - 0.0
25/12:00pm 33.0 30.0 7.8 21 14.2 NE 13 26 7 14 - - 0.0
25/11:30am 32.8 30.4 10.2 25 13.2 NE 13 28 7 15 - - 0.0
25/11:00am 31.4 28.7 10.2 27 12.3 NE 15 24 8 13 - - 0.0
25/10:30am 30.8 27.4 10.7 29 11.7 NE 19 30 10 16 - - 0.0
25/10:00am 29.0 26.7 10.6 32 10.6 NE 13 24 7 13 - - 0.0
25/09:30am 27.1 24.0 10.3 35 9.6 ENE 17 24 9 13 - - 0.0
25/09:00am 25.7 22.6 10.3 38 8.7 ENE 17 26 9 14 - - 0.0
25/08:30am 24.3 21.3 10.6 42 7.7 ENE 17 28 9 15 - - 0.0
25/08:00am 22.5 18.6 9.3 43 7.2 ENE 20 28 11 15 - - 0.0
25/07:30am 20.9 16.6 9.2 47 6.3 ENE 22 30 12 16 - - 0.0
25/07:00am 19.2 15.0 8.2 49 5.8 ENE 20 30 11 16 - - 0.0
25/06:30am 18.8 14.0 7.3 47 5.9 ENE 22 30 12 16 - - 0.0
25/06:00am 18.8 13.8 6.6 45 6.2 ENE 22 32 12 17 - - 0.0
25/05:30am 19.0 13.7 6.8 45 6.2 ENE 24 32 13 17 - - 0.0
25/05:00am 19.3 14.0 6.8 44 6.4 E 24 32 13 17 - - 0.0
25/04:30am 19.4 14.1 6.8 44 6.5 ENE 24 30 13 16 - - 0.0
25/04:00am 19.8 14.8 6.5 42 6.8 E 22 30 12 16 - - 0.0
25/03:30am 20.3 15.7 6.6 41 7.0 E 20 28 11 15 - - 0.0
25/03:00am 20.2 15.6 6.5 41 7.0 E 20 26 11 14 - - 0.0
25/02:30am 20.7 16.1 6.6 40 7.3 E 20 26 11 14 - - 0.0
25/02:00am 21.0 16.4 6.5 39 7.5 E 20 28 11 15 - - 0.0
25/01:30am 21.3 16.7 6.4 38 7.7 E 20 28 11 15 - - 0.0
25/01:00am 21.4 17.0 6.5 38 7.7 E 19 26 10 14 - - 0.0
25/12:30am 21.8 17.4 6.5 37 7.9 E 19 24 10 13 - - 0.0
25/12:00am 22.1 17.9 5.9 35 8.3 E 17 24 9 13 - - 0.0
 
Date/Time
WST
Temp
°C
App
Temp
°C
Dew
Point
°C
Rel
Hum
%
Delta-T
°C
Wind Press
QNH
hPa
Press
MSL
hPa
Rain since
9am
mm
Dir  Spd
km/h
Gust
km/h
Spd
kts
Gust
kts
24/11:30pm 22.5 18.3 5.9 34 8.5 E 17 22 9 12 - - 0.0
24/11:00pm 23.0 18.8 5.9 33 8.8 E 17 22 9 12 - - 0.0
24/10:30pm 23.2 19.0 5.6 32 9.0 E 17 22 9 12 - - 0.0
24/10:00pm 23.5 19.7 5.9 32 9.1 E 15 20 8 11 - - 0.0
24/09:30pm 23.4 19.3 6.2 33 8.9 E 17 22 9 12 - - 0.0
24/09:00pm 23.8 20.1 6.1 32 9.2 E 15 20 8 11 - - 0.0
24/08:30pm 23.9 20.3 6.7 33 9.1 E 15 20 8 11 - - 0.0
24/08:00pm 24.0 20.8 6.7 33 9.1 E 13 20 7 11 - - 0.0
24/07:30pm 24.7 21.6 7.4 33 9.3 E 13 17 7 9 - - 0.0
24/07:00pm 25.8 22.8 7.9 32 9.7 ENE 13 17 7 9 - - 0.0
24/06:30pm 27.6 24.9 9.0 31 10.4 ENE 13 17 7 9 - - 0.0
24/06:00pm 29.9 27.3 7.8 25 12.3 ENE 11 20 6 11 - - 0.0
24/05:30pm 31.0 27.5 5.4 20 13.7 ENE 13 22 7 12 - - 0.0
24/05:00pm 31.6 28.0 5.2 19 14.1 ENE 13 30 7 16 - - 0.0
24/04:30pm 32.6 28.2 6.7 20 14.3 NE 19 32 10 17 - - 0.0
24/04:00pm 32.5 28.9 5.1 18 14.7 E 13 28 7 15 - - 0.0
24/03:30pm 32.9 29.0 5.5 18 14.9 E 15 26 8 14 - - 0.0
24/03:00pm 32.9 29.4 5.5 18 14.9 NE 13 24 7 13 - - 0.0
24/02:30pm 32.9 29.2 4.6 17 15.1 NNE 13 24 7 13 - - 0.0
24/02:00pm 32.6 28.6 6.7 20 14.3 ENE 17 28 9 15 - - 0.0
24/01:30pm 32.3 29.3 9.2 24 13.2 ENE 15 28 8 15 - - 0.0
24/01:00pm 31.5 27.7 9.1 25 12.8 ENE 19 30 10 16 - - 0.0
24/12:30pm 31.4 27.8 10.7 28 12.1 NE 20 32 11 17 - - 0.0
24/12:00pm 30.0 26.0 9.0 27 11.9 NE 20 33 11 18 - - 0.0
24/11:30am 29.6 25.5 10.2 30 11.2 ENE 22 35 12 19 - - 0.0
24/11:00am 28.4 24.7 10.1 32 10.5 ENE 20 41 11 22 - - 0.0
24/10:30am 28.0 24.7 12.8 39 9.1 ENE 22 43 12 23 - - 0.0
24/10:00am 25.7 22.6 12.2 43 7.9 ENE 20 35 11 19 - - 0.0
24/09:30am 24.5 21.7 13.1 49 6.7 E 20 33 11 18 - - 0.0
24/09:00am 22.5 18.9 13.0 55 5.5 E 24 33 13 18 - - 0.0
24/08:30am 21.3 17.7 13.2 60 4.7 E 24 43 13 23 - - 0.0
24/08:00am 19.6 15.9 12.6 64 4.0 E 24 35 13 19 - - 0.0
24/07:30am 18.6 15.0 13.0 70 3.2 E 24 33 13 18 - - 0.0
24/07:00am 17.3 13.6 12.6 74 2.7 E 24 39 13 21 - - 0.0
24/06:30am 16.7 12.9 12.5 76 2.4 E 24 35 13 19 - - 0.0
24/06:00am 16.5 13.0 12.1 75 2.5 E 22 33 12 18 - - 0.0
24/05:30am 16.9 13.3 12.0 73 2.7 E 22 32 12 17 - - 0.0
24/05:00am 17.0 13.0 11.7 71 2.9 E 24 35 13 19 - - 0.0
24/04:30am 17.4 13.4 11.7 69 3.2 E 24 35 13 19 - - 0.0
24/04:00am 17.6 13.3 10.9 65 3.7 E 24 35 13 19 - - 0.0
24/03:30am 18.1 13.6 10.2 60 4.3 E 24 41 13 22 - - 0.0
24/03:00am 18.5 14.2 9.3 55 4.9 E 22 33 12 18 - - 0.0
24/02:30am 19.1 14.3 8.7 51 5.5 E 24 33 13 18 - - 0.0
24/02:00am 19.4 14.8 8.1 48 5.9 E 22 33 12 18 - - 0.0
24/01:30am 19.7 14.6 7.8 46 6.2 ESE 24 39 13 21 - - 0.0
24/01:00am 20.6 15.8 7.2 42 7.0 ESE 22 32 12 17 - - 0.0
24/12:30am 20.8 15.5 6.7 40 7.3 ESE 24 32 13 17 - - 0.0
24/12:00am 20.9 16.5 6.4 39 7.5 ESE 19 28 10 15 - - 0.0
 
Date/Time
WST
Temp
°C
App
Temp
°C
Dew
Point
°C
Rel
Hum
%
Delta-T
°C
Wind Press
QNH
hPa
Press
MSL
hPa
Rain since
9am
mm
Dir  Spd
km/h
Gust
km/h
Spd
kts
Gust
kts
23/11:30pm 21.1 16.9 5.9 37 7.7 ESE 17 28 9 15 - - 0.0
23/11:00pm 21.7 17.6 6.0 36 8.1 ESE 17 24 9 13 - - 0.0
23/10:30pm 21.9 18.1 5.8 35 8.2 ESE 15 26 8 14 - - 0.0
23/10:00pm 22.7 18.6 6.0 34 8.6 ESE 17 28 9 15 - - 0.0
23/09:30pm 22.8 19.1 6.1 34 8.6 ESE 15 26 8 14 - - 0.0
23/09:00pm 22.7 19.0 6.5 35 8.4 ESE 15 24 8 13 - - 0.0
23/08:30pm 22.9 19.6 6.6 35 8.5 ESE 13 22 7 12 - - 0.0
23/08:00pm 23.2 19.9 6.5 34 8.7 ESE 13 20 7 11 - - 0.0
23/07:30pm 23.1 19.9 6.8 35 8.6 ESE 13 20 7 11 - - 0.0
23/07:00pm 24.0 20.8 6.7 33 9.1 ESE 13 20 7 11 - - 0.0
23/06:30pm 25.4 22.7 7.5 32 9.6 ESE 11 15 6 8 - - 0.0

Other Formats:

Comma delimited format used in spreadsheet applications
http://www.bom.gov.au/fwo/IDW60801/IDW60801.95610.axf

JavaScript Object Notation format (JSON) in row-major order
http://www.bom.gov.au/fwo/IDW60801/IDW60801.95610.json